Time,TemperatureF,DewpointF,PressureIn,WindDirection,WindDirectionDegrees,WindSpeedMPH,WindSpeedGustMPH,Humidity,HourlyPrecipIn,Conditions,Clouds,dailyrainin,SoftwareType,DateUTC
2013-02-27 00:01:00,11.0,7.0,30.41,ENE,77,0.0,0.0,84,-99.99,,,-99.99,,2013-02-27 07:01:00,
2013-02-27 00:11:00,11.0,7.0,30.41,ENE,77,0.0,0.0,84,-99.99,,,-99.99,,2013-02-27 07:11:00,
2013-02-27 00:21:00,11.0,7.0,30.42,ENE,71,0.0,0.0,85,-99.99,,,-99.99,,2013-02-27 07:21:00,
2013-02-27 00:31:00,12.0,8.0,30.42,East,90,0.0,0.0,85,-99.99,,,-99.99,,2013-02-27 07:31:00,
2013-02-27 00:41:00,12.0,8.0,30.42,East,90,0.0,0.0,85,-99.99,,,-99.99,,2013-02-27 07:41:00,
2013-02-27 00:51:00,12.0,8.0,30.41,East,91,0.0,0.0,84,-99.99,,,-99.99,,2013-02-27 07:51:00,
2013-02-27 01:01:00,10.0,7.0,30.42,East,91,0.0,0.0,86,-99.99,,,-99.99,,2013-02-27 08:01:00,
2013-02-27 01:11:00,10.0,7.0,30.42,East,91,0.0,0.0,86,-99.99,,,-99.99,,2013-02-27 08:11:00,
2013-02-27 01:21:00,8.0,4.0,30.42,East,90,0.0,0.0,84,-99.99,,,-99.99,,2013-02-27 08:21:00,
2013-02-27 01:31:00,7.0,4.0,30.42,East,91,0.0,0.0,86,-99.99,,,-99.99,,2013-02-27 08:31:00,
2013-02-27 01:41:00,7.0,4.0,30.42,East,91,0.0,0.0,86,-99.99,,,-99.99,,2013-02-27 08:41:00,
2013-02-27 01:52:00,4.0,1.0,30.44,East,91,0.0,0.0,87,-99.99,,,-99.99,,2013-02-27 08:52:00,
2013-02-27 02:01:00,2.0,-1.0,30.45,East,91,0.0,0.0,86,-99.99,,,-99.99,,2013-02-27 09:01:00,
2013-02-27 02:11:00,2.0,-1.0,30.45,East,91,0.0,0.0,86,-99.99,,,-99.99,,2013-02-27 09:11:00,
2013-02-27 02:21:00,2.0,0.0,30.45,WNW,284,0.0,0.0,90,-99.99,,,-99.99,,2013-02-27 09:21:00,
2013-02-27 02:32:00,4.0,2.0,30.47,North,354,1.0,0.0,89,-99.99,,,-99.99,,2013-02-27 09:32:00,
2013-02-27 02:41:00,4.0,2.0,30.47,North,354,1.0,0.0,89,-99.99,,,-99.99,,2013-02-27 09:41:00,
2013-02-27 02:51:00,3.0,0.0,30.47,East,100,1.0,0.0,86,-99.99,,,-99.99,,2013-02-27 09:51:00,
2013-02-27 03:01:00,2.0,-1.0,30.47,West,260,0.0,0.0,86,-99.99,,,-99.99,,2013-02-27 10:01:00,
2013-02-27 03:12:00,2.0,-1.0,30.47,West,260,0.0,0.0,86,-99.99,,,-99.99,,2013-02-27 10:12:00,
2013-02-27 03:21:00,1.0,-3.0,30.47,West,259,0.0,0.0,83,-99.99,,,-99.99,,2013-02-27 10:21:00,
2013-02-27 03:32:00,1.0,-2.0,30.48,West,260,0.0,0.0,88,-99.99,,,-99.99,,2013-02-27 10:32:00,
2013-02-27 03:41:00,1.0,-2.0,30.48,West,260,0.0,0.0,88,-99.99,,,-99.99,,2013-02-27 10:41:00,
2013-02-27 03:52:00,1.0,-2.0,30.49,West,259,0.0,0.0,88,-99.99,,,-99.99,,2013-02-27 10:52:00,
2013-02-27 04:01:00,2.0,0.0,30.50,West,260,0.0,0.0,89,-99.99,,,-99.99,,2013-02-27 11:01:00,
2013-02-27 04:22:00,3.0,1.0,30.50,West,260,0.0,0.0,89,-99.99,,,-99.99,,2013-02-27 11:22:00,
2013-02-27 04:31:00,4.0,2.0,30.50,West,259,0.0,0.0,89,-99.99,,,-99.99,,2013-02-27 11:31:00,
2013-02-27 04:41:00,4.0,2.0,30.50,West,259,0.0,0.0,89,-99.99,,,-99.99,,2013-02-27 11:41:00,
2013-02-27 04:52:00,4.0,2.0,30.50,West,259,0.0,0.0,89,-99.99,,,-99.99,,2013-02-27 11:52:00,
2013-02-27 05:01:00,6.0,3.0,30.51,West,259,0.0,0.0,88,-99.99,,,-99.99,,2013-02-27 12:01:00,
2013-02-27 05:12:00,6.0,3.0,30.51,West,259,0.0,0.0,88,-99.99,,,-99.99,,2013-02-27 12:12:00,
2013-02-27 05:22:00,6.0,3.0,30.51,West,259,0.0,0.0,88,-99.99,,,-99.99,,2013-02-27 12:22:00,
2013-02-27 05:32:00,5.0,2.0,30.53,SE,139,0.0,0.0,87,-99.99,,,-99.99,,2013-02-27 12:32:00,
2013-02-27 05:41:00,5.0,2.0,30.53,SE,139,0.0,0.0,87,-99.99,,,-99.99,,2013-02-27 12:41:00,
2013-02-27 05:52:00,4.0,1.0,30.53,East,100,0.0,0.0,86,-99.99,,,-99.99,,2013-02-27 12:52:00,
2013-02-27 06:02:00,3.0,0.0,30.53,East,100,0.0,0.0,87,-99.99,,,-99.99,,2013-02-27 13:02:00,
2013-02-27 06:11:00,3.0,0.0,30.53,East,100,0.0,0.0,87,-99.99,,,-99.99,,2013-02-27 13:11:00,
2013-02-27 06:21:00,3.0,0.0,30.53,East,100,0.0,0.0,87,-99.99,,,-99.99,,2013-02-27 13:21:00,
2013-02-27 06:31:00,0.0,-3.0,30.55,ESE,123,0.0,0.0,85,-99.99,,,-99.99,,2013-02-27 13:31:00,
2013-02-27 06:41:00,0.0,-3.0,30.55,ESE,123,0.0,0.0,85,-99.99,,,-99.99,,2013-02-27 13:41:00,
2013-02-27 06:52:00,0.0,-3.0,30.55,ESE,123,0.0,0.0,85,-99.99,,,-99.99,,2013-02-27 13:52:00,
2013-02-27 07:02:00,-3.0,-6.0,30.57,ESE,123,0.0,0.0,86,-99.99,,,-99.99,,2013-02-27 14:02:00,
2013-02-27 07:31:00,-2.0,-5.0,30.58,ESE,123,0.0,0.0,87,-99.99,,,-99.99,,2013-02-27 14:31:00,
2013-02-27 07:41:00,-2.0,-5.0,30.58,ESE,123,0.0,0.0,87,-99.99,,,-99.99,,2013-02-27 14:41:00,
2013-02-27 07:52:00,-1.0,-4.0,30.58,ESE,123,0.0,0.0,87,-99.99,,,-99.99,,2013-02-27 14:52:00,
2013-02-27 08:02:00,0.0,-3.0,30.59,ESE,122,0.0,0.0,87,-99.99,,,-99.99,,2013-02-27 15:02:00,
2013-02-27 08:21:00,0.0,-3.0,30.60,ESE,123,0.0,0.0,86,-99.99,,,-99.99,,2013-02-27 15:21:00,
2013-02-27 08:32:00,6.0,4.0,30.62,ESE,122,0.0,0.0,92,-99.99,,,-99.99,,2013-02-27 15:32:00,
2013-02-27 08:42:00,6.0,4.0,30.62,ESE,122,0.0,0.0,92,-99.99,,,-99.99,,2013-02-27 15:42:00,
2013-02-27 08:52:00,10.0,7.0,30.62,SE,124,0.0,0.0,87,-99.99,,,-99.99,,2013-02-27 15:52:00,
2013-02-27 09:01:00,8.0,3.0,30.63,South,190,0.0,0.0,78,-99.99,,,-99.99,,2013-02-27 16:01:00,
2013-02-27 09:11:00,8.0,3.0,30.63,South,190,0.0,0.0,78,-99.99,,,-99.99,,2013-02-27 16:11:00,
2013-02-27 09:21:00,16.0,10.0,30.63,South,189,0.0,0.0,77,-99.99,,,-99.99,,2013-02-27 16:21:00,
2013-02-27 09:32:00,27.0,11.0,30.62,South,188,0.0,0.0,50,-99.99,,,-99.99,,2013-02-27 16:32:00,
2013-02-27 09:42:00,27.0,11.0,30.62,South,188,0.0,0.0,50,-99.99,,,-99.99,,2013-02-27 16:42:00,
2013-02-27 09:51:00,27.0,11.0,30.62,South,188,0.0,0.0,50,-99.99,,,-99.99,,2013-02-27 16:51:00,
2013-02-27 10:01:00,18.0,8.0,30.61,West,267,0.0,0.0,64,-99.99,,,-99.99,,2013-02-27 17:01:00,
2013-02-27 10:11:00,18.0,8.0,30.61,West,267,0.0,0.0,64,-99.99,,,-99.99,,2013-02-27 17:11:00,
2013-02-27 10:21:00,18.0,8.0,30.61,West,267,0.0,0.0,64,-99.99,,,-99.99,,2013-02-27 17:21:00,
2013-02-27 10:32:00,18.0,8.0,30.61,West,267,0.0,0.0,64,-99.99,,,-99.99,,2013-02-27 17:32:00,
2013-02-27 10:41:00,18.0,8.0,30.61,West,267,0.0,0.0,64,-99.99,,,-99.99,,2013-02-27 17:41:00,
2013-02-27 10:52:00,24.0,8.0,30.59,SW,222,1.0,0.0,50,-99.99,,,-99.99,,2013-02-27 17:52:00,
2013-02-27 11:01:00,26.0,9.0,30.59,WSW,243,1.0,0.0,48,-99.99,,,-99.99,,2013-02-27 18:01:00,
2013-02-27 11:11:00,26.0,9.0,30.59,WSW,243,1.0,0.0,48,-99.99,,,-99.99,,2013-02-27 18:11:00,
2013-02-27 11:21:00,26.0,9.0,30.59,WSW,243,1.0,0.0,48,-99.99,,,-99.99,,2013-02-27 18:21:00,
2013-02-27 11:31:00,31.0,14.0,30.59,SE,138,0.0,0.0,49,-99.99,,,-99.99,,2013-02-27 18:31:00,
2013-02-27 11:42:00,31.0,14.0,30.59,SE,138,0.0,0.0,49,-99.99,,,-99.99,,2013-02-27 18:42:00,
2013-02-27 11:52:00,31.0,11.0,30.59,WSW,250,0.0,0.0,43,-99.99,,,-99.99,,2013-02-27 18:52:00,
2013-02-27 12:01:00,26.0,10.0,30.58,ESE,105,1.0,0.0,50,-99.99,,,-99.99,,2013-02-27 19:01:00,
2013-02-27 12:11:00,26.0,10.0,30.58,ESE,105,1.0,0.0,50,-99.99,,,-99.99,,2013-02-27 19:11:00,
2013-02-27 12:21:00,26.0,10.0,30.58,East,101,1.0,0.0,51,-99.99,,,-99.99,,2013-02-27 19:21:00,
2013-02-27 12:32:00,27.0,11.0,30.58,SE,124,2.0,0.0,50,-99.99,,,-99.99,,2013-02-27 19:32:00,
2013-02-27 12:41:00,27.0,11.0,30.58,SE,124,2.0,0.0,50,-99.99,,,-99.99,,2013-02-27 19:41:00,
2013-02-27 12:51:00,27.0,11.0,30.58,SE,124,2.0,0.0,50,-99.99,,,-99.99,,2013-02-27 19:51:00,
2013-02-27 13:01:00,31.0,10.0,30.55,ENE,63,1.0,0.0,41,-99.99,,,-99.99,,2013-02-27 20:01:00,
2013-02-27 13:11:00,31.0,10.0,30.55,ENE,63,1.0,0.0,41,-99.99,,,-99.99,,2013-02-27 20:11:00,
2013-02-27 13:21:00,30.0,11.0,30.55,ENE,78,2.0,0.0,44,-99.99,,,-99.99,,2013-02-27 20:21:00,
2013-02-27 13:31:00,30.0,11.0,30.54,East,96,1.0,0.0,44,-99.99,,,-99.99,,2013-02-27 20:31:00,
2013-02-27 13:41:00,30.0,11.0,30.54,East,96,1.0,0.0,44,-99.99,,,-99.99,,2013-02-27 20:41:00,
2013-02-27 13:52:00,30.0,11.0,30.54,East,96,1.0,0.0,44,-99.99,,,-99.99,,2013-02-27 20:52:00,
2013-02-27 14:01:00,31.0,12.0,30.53,ESE,108,1.0,0.0,44,-99.99,,,-99.99,,2013-02-27 21:01:00,
2013-02-27 14:11:00,31.0,12.0,30.53,ESE,108,1.0,0.0,44,-99.99,,,-99.99,,2013-02-27 21:11:00,
2013-02-27 14:21:00,31.0,12.0,30.53,ESE,108,1.0,0.0,44,-99.99,,,-99.99,,2013-02-27 21:21:00,
2013-02-27 14:31:00,30.0,11.0,30.52,East,85,4.0,0.0,45,-99.99,,,-99.99,,2013-02-27 21:31:00,
2013-02-27 14:41:00,30.0,11.0,30.52,East,85,4.0,0.0,45,-99.99,,,-99.99,,2013-02-27 21:41:00,
2013-02-27 14:52:00,30.0,10.0,30.52,NE,41,5.0,0.0,43,-99.99,,,-99.99,,2013-02-27 21:52:00,
2013-02-27 15:01:00,29.0,10.0,30.52,NE,39,4.0,0.0,44,-99.99,,,-99.99,,2013-02-27 22:01:00,
2013-02-27 15:11:00,29.0,10.0,30.52,NE,39,4.0,0.0,44,-99.99,,,-99.99,,2013-02-27 22:11:00,
2013-02-27 15:21:00,29.0,10.0,30.52,NE,39,4.0,0.0,44,-99.99,,,-99.99,,2013-02-27 22:21:00,
2013-02-27 15:31:00,29.0,8.0,30.53,NE,49,4.0,0.0,40,-99.99,,,-99.99,,2013-02-27 22:31:00,
2013-02-27 15:41:00,29.0,8.0,30.53,NE,49,4.0,0.0,40,-99.99,,,-99.99,,2013-02-27 22:41:00,
2013-02-27 15:52:00,29.0,8.0,30.53,NE,49,4.0,0.0,40,-99.99,,,-99.99,,2013-02-27 22:52:00,
2013-02-27 16:01:00,30.0,10.0,30.53,ENE,67,3.0,0.0,42,-99.99,,,-99.99,,2013-02-27 23:01:00,
2013-02-27 16:11:00,30.0,10.0,30.53,ENE,67,3.0,0.0,42,-99.99,,,-99.99,,2013-02-27 23:11:00,
2013-02-27 16:21:00,30.0,9.0,30.53,NW,316,1.0,0.0,40,-99.99,,,-99.99,,2013-02-27 23:21:00,
2013-02-27 16:31:00,30.0,8.0,30.53,North,356,2.0,0.0,38,-99.99,,,-99.99,,2013-02-27 23:31:00,
2013-02-27 16:42:00,30.0,8.0,30.53,North,356,2.0,0.0,38,-99.99,,,-99.99,,2013-02-27 23:42:00,
2013-02-27 16:52:00,29.0,4.0,30.54,NNE,28,2.0,0.0,33,-99.99,,,-99.99,,2013-02-27 23:52:00,
2013-02-27 17:01:00,29.0,4.0,30.54,NW,315,3.0,0.0,34,-99.99,,,-99.99,,2013-02-28 00:01:00,
2013-02-27 17:11:00,29.0,4.0,30.54,NW,315,3.0,0.0,34,-99.99,,,-99.99,,2013-02-28 00:11:00,
2013-02-27 17:21:00,29.0,4.0,30.54,NNW,335,1.0,0.0,33,-99.99,,,-99.99,,2013-02-28 00:21:00,
2013-02-27 17:31:00,27.0,3.0,30.54,NNE,28,1.0,0.0,35,-99.99,,,-99.99,,2013-02-28 00:31:00,
2013-02-27 17:42:00,27.0,3.0,30.54,NNE,28,1.0,0.0,35,-99.99,,,-99.99,,2013-02-28 00:42:00,
2013-02-27 17:51:00,26.0,3.0,30.55,NNW,335,1.0,0.0,36,-99.99,,,-99.99,,2013-02-28 00:51:00,
2013-02-27 18:01:00,26.0,3.0,30.55,NNW,335,1.0,0.0,36,-99.99,,,-99.99,,2013-02-28 01:01:00,
2013-02-27 18:11:00,26.0,3.0,30.55,NNW,335,1.0,0.0,36,-99.99,,,-99.99,,2013-02-28 01:11:00,
2013-02-27 18:21:00,23.0,4.0,30.56,NE,46,0.0,0.0,43,-99.99,,,-99.99,,2013-02-28 01:21:00,
2013-02-27 18:31:00,21.0,4.0,30.57,SSE,160,0.0,0.0,46,-99.99,,,-99.99,,2013-02-28 01:31:00,
2013-02-27 18:41:00,21.0,4.0,30.57,SSE,160,0.0,0.0,46,-99.99,,,-99.99,,2013-02-28 01:41:00,
2013-02-27 18:51:00,21.0,4.0,30.57,SSE,160,0.0,0.0,46,-99.99,,,-99.99,,2013-02-28 01:51:00,
2013-02-27 19:01:00,19.0,6.0,30.58,ENE,60,1.0,0.0,57,-99.99,,,-99.99,,2013-02-28 02:01:00,
2013-02-27 19:11:00,19.0,6.0,30.58,ENE,60,1.0,0.0,57,-99.99,,,-99.99,,2013-02-28 02:11:00,
2013-02-27 19:22:00,14.0,3.0,30.58,ESE,105,0.0,0.0,62,-99.99,,,-99.99,,2013-02-28 02:22:00,
2013-02-27 19:31:00,11.0,3.0,30.59,ESE,104,0.0,0.0,69,-99.99,,,-99.99,,2013-02-28 02:31:00,
2013-02-27 19:41:00,11.0,3.0,30.59,ESE,104,0.0,0.0,69,-99.99,,,-99.99,,2013-02-28 02:41:00,
2013-02-27 19:51:00,11.0,3.0,30.59,ESE,104,0.0,0.0,69,-99.99,,,-99.99,,2013-02-28 02:51:00,
2013-02-27 20:01:00,11.0,3.0,30.60,ENE,68,0.0,0.0,69,-99.99,,,-99.99,,2013-02-28 03:01:00,
2013-02-27 20:21:00,11.0,3.0,30.60,ENE,70,0.0,0.0,70,-99.99,,,-99.99,,2013-02-28 03:21:00,
2013-02-27 20:31:00,9.0,3.0,30.62,East,89,1.0,0.0,75,-99.99,,,-99.99,,2013-02-28 03:31:00,
2013-02-27 20:41:00,9.0,3.0,30.62,East,89,1.0,0.0,75,-99.99,,,-99.99,,2013-02-28 03:41:00,
2013-02-27 20:51:00,9.0,2.0,30.62,East,91,0.0,0.0,74,-99.99,,,-99.99,,2013-02-28 03:51:00,
2013-02-27 21:01:00,8.0,1.0,30.62,NE,41,0.0,0.0,74,-99.99,,,-99.99,,2013-02-28 04:01:00,
2013-02-27 21:21:00,6.0,0.0,30.63,NE,41,0.0,0.0,77,-99.99,,,-99.99,,2013-02-28 04:21:00,
2013-02-27 21:31:00,5.0,0.0,30.63,NE,41,0.0,0.0,78,-99.99,,,-99.99,,2013-02-28 04:31:00,
2013-02-27 21:41:00,5.0,0.0,30.63,NE,41,0.0,0.0,78,-99.99,,,-99.99,,2013-02-28 04:41:00,
2013-02-27 21:51:00,5.0,0.0,30.63,NE,41,0.0,0.0,78,-99.99,,,-99.99,,2013-02-28 04:51:00,
2013-02-27 22:01:00,3.0,-1.0,30.64,NE,41,0.0,0.0,82,-99.99,,,-99.99,,2013-02-28 05:01:00,
2013-02-27 22:22:00,3.0,0.0,30.64,East,84,0.0,0.0,85,-99.99,,,-99.99,,2013-02-28 05:22:00,
2013-02-27 22:31:00,2.0,-2.0,30.65,East,84,0.0,0.0,84,-99.99,,,-99.99,,2013-02-28 05:31:00,
2013-02-27 22:42:00,2.0,-2.0,30.65,East,84,0.0,0.0,84,-99.99,,,-99.99,,2013-02-28 05:42:00,
2013-02-27 22:52:00,2.0,-2.0,30.65,East,84,0.0,0.0,84,-99.99,,,-99.99,,2013-02-28 05:52:00,
2013-02-27 23:01:00,1.0,-3.0,30.65,SSW,203,0.0,0.0,83,-99.99,,,-99.99,,2013-02-28 06:01:00,
2013-02-27 23:22:00,0.0,-4.0,30.65,SSW,203,0.0,0.0,84,-99.99,,,-99.99,,2013-02-28 06:22:00,
2013-02-27 23:51:00,-2.0,-5.0,30.65,ESE,105,1.0,0.0,85,-99.99,,,-99.99,,2013-02-28 06:51:00,